»·PEaware :: CNY3045 KNYL-KLSV

CNY3045 :: KNYL-KLSV

FLIGHT INFORMATION

Flight Status: Arrived
Operator: Unknown
More flights by this operator :: More flights under this callsign
Pilot: Tyler S. (14652)
Aircraft: BOEING 737-700
(B737)
More flights by this aircraft type
Origin: KNYL Yuma MCAS/Yuma Intl
United States
Destination: KLSV Nellis AFB
United States
More flights between these airports :: More routes between these airports
Route: +CARGO8 BLH V135 EED LAS
File this flight plan on PilotEdge
Remarks: Callsign "Convoy"
Altitude:
(Current/Filed)
240ft
Speed:
(Current/Filed)
420kts
Departed: 11-Mar-17 03:36 PM
Arrived: 11-Mar-17 04:31 PM
Distance/Time
Traveled:
215nm/0:54
Distance/Time
To Go:
Arrived

Flight Plot

Page will automatically refresh every two minutes.

Flight plan parsing failed; only flown route is shown


Map Options




Map Legend


Flown Route
Filed Route
Departure Airport
Arrival Airport
Navaid (VOR, NDB)
Fix

Horizontal Profiles

Position Reports

Time Latitude Longitude Heading Altitude Ground
Speed
11-Mar-17 15:08 32.659633 -114.594342 216 223ft 0kts
11-Mar-17 15:09 32.659633 -114.594342 216 223ft 0kts
11-Mar-17 15:10 32.659633 -114.594342 216 223ft 0kts
11-Mar-17 15:11 32.659633 -114.594342 216 223ft 0kts
11-Mar-17 15:12 32.659633 -114.594342 216 223ft 0kts
11-Mar-17 15:13 32.659633 -114.594342 216 223ft 0kts
11-Mar-17 15:14 32.659633 -114.594342 216 223ft 0kts
11-Mar-17 15:15 32.659633 -114.594342 216 223ft 0kts
11-Mar-17 15:16 32.659633 -114.594342 216 223ft 0kts
11-Mar-17 15:17 32.659633 -114.594342 216 223ft 0kts
11-Mar-17 15:18 32.659633 -114.594342 216 223ft 0kts
11-Mar-17 15:19 32.659633 -114.594342 216 223ft 0kts
11-Mar-17 15:20 32.659633 -114.594342 216 223ft 0kts
11-Mar-17 15:21 32.659633 -114.594342 216 223ft 0kts
11-Mar-17 15:22 32.659633 -114.594342 216 223ft 0kts
11-Mar-17 15:23 32.659633 -114.594342 216 223ft 0kts
11-Mar-17 15:24 32.659633 -114.594342 216 223ft 0kts
11-Mar-17 15:25 32.659633 -114.594342 216 223ft 0kts
11-Mar-17 15:26 32.659633 -114.594342 216 223ft 0kts
11-Mar-17 15:27 32.659632 -114.594342 216 223ft 0kts
11-Mar-17 15:28 32.659630 -114.594345 216 223ft 0kts
11-Mar-17 15:29 32.659626 -114.594348 216 223ft 0kts
11-Mar-17 15:30 32.659538 -114.594426 216 223ft 6kts
11-Mar-17 15:31 32.660547 -114.596683 316 223ft 11kts
11-Mar-17 15:32 32.660855 -114.597040 315 223ft 0kts
11-Mar-17 15:33 32.660858 -114.597043 315 223ft 0kts
11-Mar-17 15:34 32.660861 -114.597047 315 223ft 0kts
11-Mar-17 15:35 32.660935 -114.597135 315 223ft 5kts
11-Mar-17 15:36 32.662286 -114.600190 223 223ft 19kts
11-Mar-17 15:37 32.638917 -114.626921 225 556ft 203kts
11-Mar-17 15:38 32.584139 -114.650239 147 2135ft 254kts
11-Mar-17 15:39 32.589098 -114.586619 23 4377ft 240kts
11-Mar-17 15:40 32.661509 -114.590465 350 6772ft 273kts
11-Mar-17 15:41 32.739306 -114.604580 350 9840ft 290kts
11-Mar-17 15:42 32.824422 -114.620043 350 11514ft 341kts
11-Mar-17 15:43 32.924115 -114.638185 350 13649ft 372kts
11-Mar-17 15:44 33.020758 -114.655748 350 15875ft 381kts
11-Mar-17 15:45 33.126859 -114.675081 349 18097ft 390kts
11-Mar-17 15:46 33.235372 -114.694922 350 20162ft 399kts
11-Mar-17 15:47 33.346183 -114.715202 350 22031ft 407kts
11-Mar-17 15:48 33.458178 -114.735809 350 22981ft 406kts
11-Mar-17 15:49 33.569978 -114.756035 353 23767ft 406kts
11-Mar-17 15:50 33.681919 -114.748385 6 23989ft 400kts
11-Mar-17 15:51 33.791887 -114.730753 6 23992ft 399kts
11-Mar-17 15:52 33.902396 -114.713428 6 23996ft 405kts
11-Mar-17 15:53 34.015772 -114.695638 5 23999ft 410kts
11-Mar-17 15:54 34.128479 -114.674933 11 24001ft 411kts
11-Mar-17 15:55 34.239009 -114.639813 13 24000ft 411kts
11-Mar-17 15:56 34.351077 -114.640524 346 23996ft 408kts
11-Mar-17 15:57 34.461251 -114.672999 345 23996ft 408kts
11-Mar-17 15:58 34.571928 -114.705754 345 24011ft 408kts
11-Mar-17 15:59 34.680516 -114.737938 345 24001ft 379kts
11-Mar-17 16:00 34.778833 -114.767013 345 23021ft 351kts
11-Mar-17 16:01 34.868929 -114.793766 345 21813ft 318kts
11-Mar-17 16:02 34.954760 -114.819327 345 22021ft 344kts
11-Mar-17 16:03 35.056605 -114.849740 345 22017ft 398kts
11-Mar-17 16:04 35.163604 -114.881781 345 22007ft 396kts
11-Mar-17 16:05 35.265939 -114.912508 345 22024ft 396kts
11-Mar-17 16:06 35.373906 -114.945014 345 22042ft 423kts
11-Mar-17 16:07 35.488340 -114.979566 345 22058ft 422kts
11-Mar-17 16:08 35.602301 -115.014078 345 22089ft 422kts
11-Mar-17 16:09 35.716468 -115.048755 345 21606ft 422kts
11-Mar-17 16:10 35.823353 -115.081245 345 19963ft 372kts
11-Mar-17 16:11 35.919414 -115.110595 344 18259ft 342kts
11-Mar-17 16:12 35.997672 -115.134593 344 16776ft 324kts
11-Mar-17 16:13 36.083228 -115.160877 345 15075ft 311kts
11-Mar-17 16:14 36.165174 -115.151129 22 13372ft 304kts
11-Mar-17 16:15 36.227572 -115.117285 22 12004ft 305kts
11-Mar-17 16:16 36.305723 -115.075633 22 10302ft 305kts
11-Mar-17 16:17 36.383607 -115.035476 22 8607ft 302kts
11-Mar-17 16:18 36.458259 -114.997074 22 7976ft 273kts
11-Mar-17 16:19 36.525507 -114.962329 22 8002ft 256kts
11-Mar-17 16:20 36.592311 -114.927849 22 7989ft 260kts
11-Mar-17 16:21 36.659521 -114.893171 22 7998ft 261kts
11-Mar-17 16:22 36.684922 -114.824487 127 7692ft 269kts
11-Mar-17 16:23 36.620471 -114.777737 152 6921ft 267kts
11-Mar-17 16:24 36.549603 -114.777950 192 6185ft 260kts
11-Mar-17 16:25 36.478827 -114.796930 192 5734ft 257kts
11-Mar-17 16:26 36.412643 -114.827597 220 5285ft 250kts
11-Mar-17 16:27 36.366045 -114.885898 226 4518ft 225kts
11-Mar-17 16:28 36.323875 -114.935283 217 3658ft 191kts
11-Mar-17 16:29 36.285715 -114.977896 223 2945ft 168kts
11-Mar-17 16:30 36.251869 -115.015221 220 2074ft 162kts
11-Mar-17 16:31 36.229439 -115.039287 221 1877ft 42kts
11-Mar-17 16:32 36.225467 -115.045270 311 1877ft 13kts
11-Mar-17 16:33 36.228283 -115.047778 42 1877ft 14kts
11-Mar-17 16:34 36.229239 -115.048033 42 1877ft 0kts
11-Mar-17 16:35 36.229243 -115.048030 42 1877ft 0kts

Navigation Log

Ident Type
Flight plan parsing failed, navigation log unavailable